Flight Track Log - Related Links

Times and Time Zones

All times are in EDT time to prevent confusion due to time zone crossing. See the EJA328 flight status page for this flight to view local times or setup timezone preferences in your user account.

Time Position Orientation Groundspeed Altitude Reporting Facility
EDT Latitude Longitude Course Direction KTS MPH feet Rate Location/Type
Fri 04:23:47 PM 39.1060 -119.4697 136° Southeast 391 450 23,100  Level FlightAware ADS-B (KSAC)
Fri 04:25:01 PM 38.9934 -119.3315 136° Southeast 417 480 25,700 1,983 Climbing FlightAware ADS-B
Fri 04:25:45 PM 38.9320 -119.2555 136° Southeast 424 488 27,000 1,458 Climbing FlightAware ADS-B
Fri 04:26:48 PM 38.9032 -119.2200 136° Southeast 434 499 28,300 839 Climbing FlightAware ADS-B (KSAC)
Fri 04:28:08 PM 38.8018 -119.0953 136° Southeast 445 512 29,000 268 Climbing FlightAware ADS-B (KSAC)
Fri 04:29:25 PM 38.6201 -118.8517 133° Southeast 490 564 29,000 268 Level FlightAware ADS-B (KSAC)
Fri 04:31:07 PM 38.4586 -118.6332 133° Southeast 472 543 29,800 667 Climbing FlightAware ADS-B (KSAC)
Fri 04:31:58 PM 38.3886 -118.5386 133° Southeast 483 556 30,700 1,381 Climbing Los Angeles Center
Fri 04:33:00 PM 38.2806 -118.3919 133° Southeast 478 550 32,400 1,104 Climbing Los Angeles Center
Fri 04:34:03 PM 38.1908 -118.2739 134° Southeast 473 544 33,000 288 Climbing Los Angeles Center
Fri 04:35:05 PM 38.0803 -118.2061 154° Southeast 456 525 33,000  Level Los Angeles Center
Fri 04:36:07 PM 37.9683 -118.2381 193° South 417 480 33,000  Level Los Angeles Center
Fri 04:37:09 PM 37.8639 -118.2997 205° Southwest 415 478 33,000  Level Los Angeles Center
Fri 04:38:11 PM 37.7222 -118.2981 179° South 430 495 33,000  Level Los Angeles Center
Fri 04:39:13 PM 37.6103 -118.2203 151° Southeast 464 534 33,000  Level Los Angeles Center
Fri 04:40:24 PM 37.5147 -118.0553 126° Southeast 493 567 33,000  Level Oakland Center
Fri 04:41:25 PM 37.4386 -117.9139 124° Southeast 492 566 33,000  Level Oakland Center
Fri 04:42:27 PM 37.3636 -117.7719 124° Southeast 492 566 33,000  Level Oakland Center
Fri 04:43:28 PM 37.2864 -117.6322 125° Southeast 492 566 33,000  Level Oakland Center
Fri 04:44:30 PM 37.2103 -117.4925 124° Southeast 490 564 33,000  Level Oakland Center
Fri 04:45:26 PM 37.1339 -117.3494 124° Southeast 491 565 33,000  Level Los Angeles Center
Fri 04:46:29 PM 37.0553 -117.2075 125° Southeast 493 567 33,000  Level Los Angeles Center
Fri 04:47:31 PM 36.9778 -117.0653 124° Southeast 493 567 33,000  Level Los Angeles Center
Fri 04:48:33 PM 36.8997 -116.9231 124° Southeast 496 571 33,000 -968 Level Los Angeles Center
Fri 04:49:35 PM 36.8056 -116.7531 125° Southeast 496 571 31,000 -2,226 Descending Los Angeles Center
Fri 04:50:37 PM 36.7167 -116.6242 131° Southeast 492 566 28,400 -2,503 Descending Los Angeles Center
Fri 04:52:42 PM 36.5372 -116.3731 132° Southeast 489 563 23,200 -2,342 Descending Oakland Center
Fri 04:53:44 PM 36.4522 -116.2522 131° Southeast 467 537 21,100 -1,935 Descending Los Angeles Center
Fri 04:54:46 PM 36.3556 -116.1125 131° Southeast 454 522 19,200 -1,694 Descending Los Angeles Center
Fri 04:55:48 PM 36.2739 -115.9994 132° Southeast 444 511 17,600 -1,197 Descending Los Angeles Center
Fri 05:01:42 PM 36.0324 -115.3777 107° East 312 359 10,900 -1,158 Descending FlightAware ADS-B
Fri 05:01:56 PM 36.0293 -115.3546 93° East 293 337 10,500 -1,200 Descending FlightAware ADS-B
Fri 05:02:27 PM 36.0263 -115.3039 96° East 273 314 10,000 -960 Descending FlightAware ADS-B
Fri 05:02:46 PM 36.0240 -115.2751 96° East 262 302 9,700 -1,050 Descending FlightAware ADS-B
Fri 05:03:07 PM 36.0217 -115.2451 95° East 262 302 9,300 -1,000 Descending FlightAware ADS-B
Fri 05:03:22 PM 36.0205 -115.2279 95° East 262 302 9,100 -1,000 Descending FlightAware ADS-B
Fri 05:03:37 PM 36.0185 -115.2021 95° East 263 303 8,800 -1,000 Descending FlightAware ADS-B
Fri 05:03:52 PM 36.0168 -115.1769 95° East 261 300 8,600 -686 Descending FlightAware ADS-B
Fri 05:04:12 PM 36.0148 -115.1479 95° East 247 284 8,400 -667 Descending FlightAware ADS-B
Fri 05:04:28 PM 36.0135 -115.1271 95° East 236 272 8,200 -667 Descending FlightAware ADS-B
Fri 05:04:48 PM 36.0117 -115.1011 95° East 222 255 8,000 -444 Descending FlightAware ADS-B
Fri 05:05:22 PM 36.0090 -115.0602 94° East 202 232 7,800 -136 Descending FlightAware ADS-B
Fri 05:05:32 PM 36.0085 -115.0482 89° East 198 228 7,900  Climbing FlightAware ADS-B
Fri 05:05:36 PM 36.0089 -115.0444 78° East 199 229 7,800 -600 Descending FlightAware ADS-B
Fri 05:05:42 PM 36.0108 -115.0385 65° Northeast 200 230 7,800  Level FlightAware ADS-B
Fri 05:05:45 PM 36.0129 -115.0351 52° Northeast 200 230 7,800  Level FlightAware ADS-B
Fri 05:05:52 PM 36.0183 -115.0300 34° Northeast 199 229 7,800 273 Level FlightAware ADS-B
Fri 05:06:07 PM 36.0273 -115.0242 26° Northeast 200 230 7,900 -200 Climbing FlightAware ADS-B
Fri 05:06:22 PM 36.0419 -115.0152 26° Northeast 194 223 7,700 -1,200 Descending FlightAware ADS-B
Fri 05:06:42 PM 36.0591 -115.0049 26° Northeast 198 228 7,200 -1,333 Descending FlightAware ADS-B
Fri 05:07:07 PM 36.0795 -114.9928 26° Northeast 199 229 6,700 -1,174 Descending FlightAware ADS-B
Fri 05:07:28 PM 36.0977 -114.9865 356° North 192 221 6,300 -1,241 Descending FlightAware ADS-B
Fri 05:07:36 PM 36.1045 -114.9904 321° Northwest 183 211 6,100 -1,714 Descending FlightAware ADS-B
Fri 05:07:42 PM 36.1073 -114.9941 307° West 182 209 5,900 -1,636 Descending FlightAware ADS-B
Fri 05:07:47 PM 36.1101 -114.9997 302° West 183 211 5,800 -1,200 Descending FlightAware ADS-B
Fri 05:08:07 PM 36.1175 -115.0182 296° West 183 211 5,400 -1,077 Descending FlightAware ADS-B
Fri 05:08:26 PM 36.1245 -115.0360 296° West 186 214 5,100 -923 Descending FlightAware ADS-B
Fri 05:08:46 PM 36.1319 -115.0558 291° West 183 211 4,800 -833 Descending FlightAware ADS-B
Fri 05:09:02 PM 36.1359 -115.0706 284° West 182 209 4,600 -774 Descending FlightAware ADS-B
Fri 05:09:17 PM 36.1388 -115.0862 278° West 167 192 4,400 -1,000 Descending FlightAware ADS-B
Fri 05:09:32 PM 36.1402 -115.0992 278° West 158 182 4,100 -1,400 Descending FlightAware ADS-B
Fri 05:09:47 PM 36.1416 -115.1129 276° West 151 174 3,700 -1,800 Descending FlightAware ADS-B
Fri 05:10:02 PM 36.1416 -115.1251 259° West 149 171 3,200 -1,800 Descending FlightAware ADS-B
Fri 05:10:07 PM 36.1401 -115.1296 244° Southwest 149 171 3,100 -1,200 Descending FlightAware ADS-B
Fri 05:10:12 PM 36.1379 -115.1330 236° Southwest 147 169 3,000 -1,800 Descending FlightAware ADS-B
Fri 05:10:17 PM 36.1374 -115.1336 215° Southwest 143 165 2,800 -1,250 Descending FlightAware ADS-B
Fri 05:10:36 PM 36.1244 -115.1424 210° Southwest 140 161 2,500 -571 Descending FlightAware ADS-B
Fri 05:11:20 PM 36.1011 -115.1547 210° Southwest 139 160 2,200 -409 Descending Los Angeles Center
Fri 05:13:00 PM 36.0801 -115.1523 180° South  Level Estimated

Login

Don't have an account? Register now (free) for customized features, flight alerts, and more!